Time;durP1;ratioP1;P1;durP2;ratioP2;P2;SDS_P1;SDS_P2;PMS_P1;PMS_P2;Temp;Humidity;BMP_temperature;BMP_pressure;BME280_temperature;BME280_humidity;BME280_pressure;Samples;Min_cycle;Max_cycle;Signal;HPM_P1;HPM_P2
2022/12/23 00:00:19;;;;;;;17.88;7.03;;;11.30;97.40;;;;;;5137305;28;20048;-73
2022/12/23 00:02:45;;;;;;;25.58;7.38;;;11.30;97.40;;;;;;5137303;28;20563;-73
2022/12/23 00:05:11;;;;;;;15.48;6.72;;;11.30;97.30;;;;;;5137268;28;20023;-73
2022/12/23 00:07:37;;;;;;;19.42;7.47;;;11.30;97.30;;;;;;5136038;28;20047;-73
2022/12/23 00:10:02;;;;;;;19.38;7.25;;;11.30;97.40;;;;;;5137048;28;20032;-73
2022/12/23 00:15:13;;;;;;;17.60;7.30;;;11.30;97.50;;;;;;5136979;28;20045;-73
2022/12/23 00:17:43;;;;;;;22.95;7.65;;;11.30;97.60;;;;;;5136066;28;20079;-73
2022/12/23 00:20:12;;;;;;;19.63;7.43;;;11.30;97.60;;;;;;5135941;28;20378;-73
2022/12/23 00:25:39;;;;;;;18.42;7.72;;;11.30;97.60;;;;;;5137125;28;20043;-73
2022/12/23 00:28:07;;;;;;;24.20;8.02;;;11.30;98.00;;;;;;5135921;28;20058;-73
2022/12/23 00:30:32;;;;;;;20.90;9.05;;;11.30;97.60;;;;;;5136714;28;20102;-73
2022/12/23 00:32:58;;;;;;;16.80;8.00;;;11.30;97.60;;;;;;5135645;28;20023;-73
2022/12/23 00:35:23;;;;;;;16.77;7.80;;;11.30;97.50;;;;;;5135735;28;20028;-73
2022/12/23 00:37:49;;;;;;;20.42;8.05;;;11.30;97.40;;;;;;5118560;28;20038;-73
2022/12/23 00:43:00;;;;;;;22.02;8.35;;;11.30;97.50;;;;;;5121508;28;20066;-73
2022/12/23 00:45:25;;;;;;;17.38;7.75;;;11.30;97.40;;;;;;5135581;28;20034;-73
2022/12/23 00:50:37;;;;;;;17.90;7.60;;;11.30;97.50;;;;;;5136466;28;20061;-73
2022/12/23 00:53:03;;;;;;;18.35;8.27;;;11.30;97.50;;;;;;5136334;28;20024;-73
2022/12/23 00:55:29;;;;;;;25.10;9.05;;;11.30;97.50;;;;;;5136057;28;20027;-73
2022/12/23 00:57:55;;;;;;;23.58;8.32;;;11.30;97.50;;;;;;5136162;28;20027;-73
2022/12/23 01:05:35;;;;;;;19.77;9.07;;;11.30;97.60;;;;;;5118181;28;20029;-73
2022/12/23 01:05:59;;;;;;;17.02;8.43;;;11.30;97.60;;;;;;5136310;28;20038;-73
2022/12/23 01:08:25;;;;;;;18.63;8.23;;;11.30;98.10;;;;;;5134905;28;20032;-73
2022/12/23 01:10:51;;;;;;;15.35;6.95;;;11.30;97.80;;;;;;5134857;28;20034;-73
2022/12/23 01:13:17;;;;;;;19.75;9.52;;;11.30;97.80;;;;;;5135864;28;20067;-73
2022/12/23 01:15:43;;;;;;;19.35;8.63;;;11.30;97.90;;;;;;5117558;28;20048;-73
2022/12/23 01:18:09;;;;;;;18.52;8.05;;;11.30;97.90;;;;;;5134887;28;20039;-73
2022/12/23 01:20:37;;;;;;;24.88;9.57;;;11.30;97.90;;;;;;5134891;28;20038;-73
2022/12/23 01:23:03;;;;;;;20.80;8.82;;;11.30;97.80;;;;;;5135728;28;20040;-73
2022/12/23 01:25:30;;;;;;;19.35;8.73;;;11.40;97.70;;;;;;5134597;28;20032;-73
2022/12/23 01:27:55;;;;;;;15.80;7.05;;;11.40;97.70;;;;;;5134698;28;20038;-73
2022/12/23 01:30:21;;;;;;;20.90;8.15;;;11.30;97.80;;;;;;5135498;28;20028;-73
2022/12/23 01:32:47;;;;;;;17.42;7.70;;;11.30;97.80;;;;;;5134457;28;20028;-73
2022/12/23 01:35:12;;;;;;;18.60;8.60;;;11.30;97.70;;;;;;5134437;28;20069;-73
2022/12/23 01:37:38;;;;;;;19.25;7.78;;;11.40;97.70;;;;;;5135424;28;20039;-73
2022/12/23 01:40:05;;;;;;;17.17;7.97;;;11.40;98.00;;;;;;5134449;28;20036;-73
2022/12/23 01:42:43;;;;;;;17.45;8.40;;;11.40;97.60;;;;;;5135300;28;20023;-72
2022/12/23 01:45:09;;;;;;;22.08;8.48;;;11.40;97.60;;;;;;5134473;28;20024;-73
2022/12/23 01:48:08;;;;;;;20.38;7.93;;;11.30;97.60;;;;;;5135345;28;20045;-73
2022/12/23 01:50:41;;;;;;;17.52;7.53;;;11.40;97.60;;;;;;5120280;27;20087;-73
2022/12/23 01:53:27;;;;;;;14.27;7.85;;;11.40;97.70;;;;;;5135154;28;20047;-73
2022/12/23 01:56:08;;;;;;;19.20;8.65;;;11.40;97.60;;;;;;5134168;28;20047;-73
2022/12/23 01:58:35;;;;;;;23.05;7.90;;;11.40;97.70;;;;;;5134089;28;20058;-73
2022/12/23 02:03:48;;;;;;;17.33;8.45;;;11.40;97.70;;;;;;5135119;28;20039;-73
2022/12/23 02:09:17;;;;;;;18.30;7.38;;;11.40;97.60;;;;;;5134845;28;20037;-73
2022/12/23 02:12:04;;;;;;;15.35;6.75;;;11.40;97.60;;;;;;5119569;28;20027;-72
2022/12/23 02:17:30;;;;;;;18.85;7.70;;;11.30;97.60;;;;;;5134744;28;20057;-73
2022/12/23 02:20:36;;;;;;;16.67;6.47;;;11.30;97.60;;;;;;5133546;28;20024;-72
2022/12/23 02:23:32;;;;;;;18.33;7.15;;;11.30;97.60;;;;;;5120101;28;20039;-73
2022/12/23 02:26:05;;;;;;;20.65;7.90;;;11.30;97.70;;;;;;5133614;28;20042;-73
2022/12/23 02:29:14;;;;;;;16.23;7.85;;;11.30;97.70;;;;;;5134526;28;20087;-73
2022/12/23 02:32:08;;;;;;;18.58;7.38;;;11.30;97.60;;;;;;5134363;28;20030;-73
2022/12/23 02:34:39;;;;;;;18.15;7.20;;;11.30;97.60;;;;;;5131908;28;20177;-73
2022/12/23 02:37:18;;;;;;;18.52;6.90;;;11.30;97.60;;;;;;5134369;28;20024;-73
2022/12/23 02:39:54;;;;;;;19.02;7.50;;;11.30;97.70;;;;;;5133401;28;20016;-73
2022/12/23 02:42:30;;;;;;;15.27;6.72;;;11.30;97.70;;;;;;5133265;28;20060;-73
2022/12/23 02:45:02;;;;;;;15.35;7.60;;;11.30;97.70;;;;;;5134252;28;20071;-73
2022/12/23 02:47:41;;;;;;;15.95;6.88;;;11.40;97.60;;;;;;5134224;28;20027;-73
2022/12/23 02:50:22;;;;;;;15.93;6.82;;;11.30;97.60;;;;;;5133074;28;20035;-73
2022/12/23 02:52:50;;;;;;;14.45;6.18;;;11.40;97.60;;;;;;5134149;28;20112;-73
2022/12/23 02:55:23;;;;;;;15.70;6.68;;;11.30;97.60;;;;;;5134079;28;20020;-73
2022/12/23 02:57:51;;;;;;;18.52;7.05;;;11.40;97.60;;;;;;5134131;28;20023;-73
2022/12/23 03:00:17;;;;;;;16.60;6.72;;;11.40;98.00;;;;;;5132974;28;20028;-73
2022/12/23 03:02:43;;;;;;;16.10;6.47;;;11.30;97.60;;;;;;5132981;28;20127;-73
2022/12/23 03:05:49;;;;;;;18.55;7.15;;;11.40;97.60;;;;;;5115969;28;20052;-73
2022/12/23 03:08:21;;;;;;;16.55;7.15;;;11.30;97.60;;;;;;5051306;28;20068;-73
2022/12/23 03:10:57;;;;;;;15.75;7.32;;;11.30;97.70;;;;;;5034791;28;20032;-73
2022/12/23 03:14:06;;;;;;;15.32;7.10;;;11.30;97.60;;;;;;5100418;28;20057;-73
2022/12/23 03:16:37;;;;;;;16.63;5.82;;;11.30;97.70;;;;;;5133742;28;20054;-73
2022/12/23 03:19:22;;;;;;;16.85;7.03;;;11.30;97.70;;;;;;5134826;28;20567;-73
2022/12/23 03:21:50;;;;;;;14.35;6.38;;;11.30;97.70;;;;;;5138053;28;20027;-73
2022/12/23 03:24:50;;;;;;;16.98;7.25;;;11.30;97.70;;;;;;5137006;28;20034;-73
2022/12/23 03:27:26;;;;;;;20.33;7.63;;;11.30;97.70;;;;;;5120055;28;20095;-73
2022/12/23 03:30:00;;;;;;;15.77;6.80;;;11.30;97.70;;;;;;5136966;28;20039;-73
2022/12/23 03:32:31;;;;;;;14.70;7.05;;;11.30;97.60;;;;;;5137931;28;20031;-73
2022/12/23 03:34:59;;;;;;;19.45;7.50;;;11.30;97.70;;;;;;5136934;28;20023;-73
2022/12/23 03:37:28;;;;;;;19.92;7.30;;;11.30;97.70;;;;;;5137811;28;20027;-73
2022/12/23 03:40:09;;;;;;;16.77;7.05;;;11.30;97.60;;;;;;5136713;28;20016;-73
2022/12/23 03:42:39;;;;;;;13.63;6.03;;;11.40;97.60;;;;;;5137723;28;20506;-73
2022/12/23 03:45:14;;;;;;;20.40;7.15;;;11.30;97.60;;;;;;5137690;28;20024;-73
2022/12/23 03:47:53;;;;;;;19.17;6.93;;;11.30;97.60;;;;;;5137673;27;20023;-73
2022/12/23 03:50:21;;;;;;;13.93;5.85;;;11.30;97.60;;;;;;5136543;28;20043;-73
2022/12/23 03:53:19;;;;;;;14.77;6.28;;;11.40;97.60;;;;;;5137484;28;20020;-73
2022/12/23 03:55:59;;;;;;;11.68;5.35;;;11.40;97.50;;;;;;5136950;28;20036;-73
2022/12/23 03:58:28;;;;;;;11.40;5.35;;;11.30;97.50;;;;;;5137587;28;20020;-73
2022/12/23 04:01:19;;;;;;;16.48;5.68;;;11.30;97.50;;;;;;5137475;28;20024;-73
2022/12/23 04:04:14;;;;;;;12.10;5.60;;;11.30;97.50;;;;;;5099057;28;20100;-73
2022/12/23 04:06:52;;;;;;;11.13;5.25;;;11.30;97.40;;;;;;5137245;28;20513;-73
2022/12/23 04:09:20;;;;;;;10.65;4.65;;;11.40;97.40;;;;;;5137167;28;20015;-73
2022/12/23 04:11:47;;;;;;;11.80;4.82;;;11.30;97.30;;;;;;5136093;28;20181;-73
2022/12/23 04:14:20;;;;;;;13.27;5.78;;;11.30;97.30;;;;;;5137086;28;20077;-73
2022/12/23 04:16:48;;;;;;;11.43;5.78;;;11.30;97.40;;;;;;5136936;28;20051;-73
2022/12/23 04:19:14;;;;;;;13.70;6.38;;;11.30;97.40;;;;;;5136063;28;20023;-73
2022/12/23 04:21:39;;;;;;;11.38;5.10;;;11.30;97.40;;;;;;5135903;28;20036;-73
2022/12/23 04:24:05;;;;;;;14.23;6.22;;;11.30;97.40;;;;;;5136884;28;20043;-73
2022/12/23 04:26:31;;;;;;;12.73;5.70;;;11.30;97.30;;;;;;5135803;28;20027;-73
2022/12/23 04:28:56;;;;;;;17.85;6.28;;;11.30;97.70;;;;;;5118852;28;20031;-73
2022/12/23 04:31:22;;;;;;;14.23;5.35;;;11.30;97.40;;;;;;5136068;28;20054;-73
2022/12/23 04:33:48;;;;;;;14.80;6.50;;;11.30;97.40;;;;;;5135838;28;20027;-73
2022/12/23 04:36:13;;;;;;;13.30;5.68;;;11.30;97.40;;;;;;5118604;28;20094;-73
2022/12/23 04:38:39;;;;;;;14.77;6.05;;;11.20;97.40;;;;;;5136606;28;20023;-73
2022/12/23 04:41:05;;;;;;;16.05;6.38;;;11.30;97.30;;;;;;5135656;28;20039;-73
2022/12/23 04:43:30;;;;;;;15.55;5.95;;;11.30;97.30;;;;;;5118516;28;20026;-73
2022/12/23 04:45:56;;;;;;;18.25;6.82;;;11.30;97.30;;;;;;5136454;28;20054;-73
2022/12/23 04:48:21;;;;;;;15.23;6.43;;;11.30;97.20;;;;;;5135498;28;20091;-73
2022/12/23 04:50:47;;;;;;;13.43;5.65;;;11.30;97.20;;;;;;5136296;28;20091;-73
2022/12/23 04:53:12;;;;;;;13.25;5.13;;;11.30;97.50;;;;;;5135411;28;20028;-73
2022/12/23 04:55:38;;;;;;;13.00;5.28;;;11.30;97.50;;;;;;5118437;28;20024;-73
2022/12/23 04:58:04;;;;;;;12.57;5.75;;;11.30;97.10;;;;;;5118295;28;20035;-73
2022/12/23 05:00:29;;;;;;;12.63;5.72;;;11.30;97.00;;;;;;5118132;28;20024;-73
2022/12/23 05:02:55;;;;;;;12.02;4.65;;;11.30;97.00;;;;;;5118090;28;20035;-73
2022/12/23 05:05:20;;;;;;;11.88;5.30;;;11.30;97.00;;;;;;5135085;28;20039;-73
2022/12/23 05:07:49;;;;;;;14.07;5.45;;;11.30;97.00;;;;;;5118021;28;20028;-73
2022/12/23 05:10:15;;;;;;;13.70;5.40;;;11.30;97.00;;;;;;5135943;28;20467;-73
2022/12/23 05:12:40;;;;;;;14.05;5.80;;;11.30;97.00;;;;;;5135921;28;20037;-73
2022/12/23 05:15:07;;;;;;;12.15;5.35;;;11.30;96.90;;;;;;5134845;28;20055;-73
2022/12/23 05:17:33;;;;;;;13.70;5.28;;;11.40;96.90;;;;;;5135826;28;20049;-73
2022/12/23 05:19:58;;;;;;;11.95;5.13;;;11.30;96.80;;;;;;5134892;28;20024;-73
2022/12/23 05:22:24;;;;;;;11.30;5.20;;;11.30;96.80;;;;;;5135812;28;20023;-73
2022/12/23 05:24:50;;;;;;;11.57;5.07;;;11.30;96.80;;;;;;5134825;28;20023;-73
2022/12/23 05:27:15;;;;;;;11.00;5.43;;;11.30;96.80;;;;;;5135652;28;20041;-73
2022/12/23 05:29:41;;;;;;;13.25;5.82;;;11.30;96.70;;;;;;5117579;28;20019;-73
2022/12/23 05:32:06;;;;;;;11.52;5.43;;;11.30;96.70;;;;;;5134553;28;20031;-73
2022/12/23 05:34:32;;;;;;;14.60;5.47;;;11.30;96.60;;;;;;5117560;28;20020;-73
2022/12/23 05:36:57;;;;;;;12.60;5.55;;;11.30;97.00;;;;;;5134508;28;20446;-73
2022/12/23 05:39:23;;;;;;;12.50;5.38;;;11.30;96.60;;;;;;5134450;28;20031;-73
2022/12/23 05:41:49;;;;;;;15.82;5.60;;;11.30;96.50;;;;;;5133485;28;20024;-73
2022/12/23 05:44:14;;;;;;;13.40;5.88;;;11.30;96.50;;;;;;5117394;28;20136;-73
2022/12/23 05:46:40;;;;;;;14.68;5.95;;;11.30;96.90;;;;;;5117279;28;20020;-72
2022/12/23 05:49:05;;;;;;;12.63;5.65;;;11.30;96.50;;;;;;5135211;28;20040;-73
2022/12/23 05:51:31;;;;;;;15.13;6.63;;;11.30;96.50;;;;;;5117157;28;20024;-73
2022/12/23 05:53:57;;;;;;;14.15;5.93;;;11.30;96.50;;;;;;5135095;28;20028;-73
2022/12/23 05:56:22;;;;;;;15.05;6.18;;;11.30;96.50;;;;;;5134162;28;20049;-73
2022/12/23 05:58:48;;;;;;;13.38;6.60;;;11.40;96.50;;;;;;5134997;28;20027;-73
2022/12/23 06:01:13;;;;;;;15.75;6.22;;;11.40;96.50;;;;;;5134125;28;20028;-73
2022/12/23 06:03:39;;;;;;;14.13;6.13;;;11.40;96.40;;;;;;5134032;28;20028;-73
2022/12/23 06:06:05;;;;;;;15.40;6.75;;;11.40;96.40;;;;;;5099971;28;20040;-73
2022/12/23 06:08:31;;;;;;;14.25;6.50;;;11.40;96.40;;;;;;5133864;28;20031;-73
2022/12/23 06:10:58;;;;;;;16.80;6.75;;;11.40;96.50;;;;;;5134698;28;20039;-73
2022/12/23 06:13:24;;;;;;;13.48;5.80;;;11.40;96.50;;;;;;5133912;28;20045;-73
2022/12/23 06:15:50;;;;;;;13.00;5.35;;;11.40;96.50;;;;;;5133664;28;20522;-73
2022/12/23 06:18:15;;;;;;;12.38;5.18;;;11.40;96.50;;;;;;5099750;28;20035;-73
2022/12/23 06:20:44;;;;;;;13.23;5.40;;;11.40;96.50;;;;;;5134616;28;20026;-73
2022/12/23 06:23:09;;;;;;;10.95;4.95;;;11.40;96.50;;;;;;5116978;28;20023;-73
2022/12/23 06:25:35;;;;;;;10.50;4.78;;;11.40;96.40;;;;;;5134509;28;20039;-73
2022/12/23 06:28:00;;;;;;;13.98;5.15;;;11.40;96.40;;;;;;5134322;28;20116;-73
2022/12/23 06:30:26;;;;;;;14.15;5.70;;;11.40;96.40;;;;;;5116439;28;20064;-73
2022/12/23 06:32:51;;;;;;;13.02;6.25;;;11.30;96.40;;;;;;5099529;28;20053;-73
2022/12/23 06:35:17;;;;;;;18.73;7.75;;;11.30;96.40;;;;;;5133558;28;20034;-73
2022/12/23 06:37:43;;;;;;;19.60;8.07;;;11.30;96.40;;;;;;5116458;28;20047;-73
2022/12/23 06:40:10;;;;;;;18.90;8.10;;;11.30;96.50;;;;;;5133454;28;20039;-73
2022/12/23 06:42:36;;;;;;;24.75;8.57;;;11.30;96.50;;;;;;5116408;28;20040;-73
2022/12/23 06:45:01;;;;;;;22.40;9.13;;;11.30;96.50;;;;;;5133386;28;20093;-73
2022/12/23 06:47:27;;;;;;;22.63;8.15;;;11.40;96.50;;;;;;5116177;28;20024;-74
2022/12/23 06:49:53;;;;;;;22.38;8.77;;;11.40;96.40;;;;;;5133197;28;20020;-74
2022/12/23 06:52:21;;;;;;;25.48;9.70;;;11.40;96.50;;;;;;5133134;28;20030;-74
2022/12/23 06:54:47;;;;;;;21.48;8.77;;;11.40;96.30;;;;;;5133897;28;20016;-73
2022/12/23 06:57:13;;;;;;;23.40;9.30;;;11.30;96.30;;;;;;5116309;28;20076;-73
2022/12/23 06:59:38;;;;;;;24.60;8.63;;;11.30;96.30;;;;;;5133100;28;20035;-73
2022/12/23 07:02:04;;;;;;;27.13;9.52;;;11.30;96.30;;;;;;5116086;28;20027;-73
2022/12/23 07:04:31;;;;;;;26.13;10.13;;;11.20;96.40;;;;;;5133986;28;20023;-73
2022/12/23 07:06:57;;;;;;;25.58;10.15;;;11.30;96.40;;;;;;5133930;28;20075;-73
2022/12/23 07:09:23;;;;;;;28.20;9.27;;;11.20;96.40;;;;;;5133917;28;20024;-74
2022/12/23 07:11:48;;;;;;;24.67;9.85;;;11.30;96.40;;;;;;5132941;28;20053;-73
2022/12/23 07:14:14;;;;;;;26.60;9.50;;;11.20;96.40;;;;;;5115981;28;20027;-73
2022/12/23 07:16:39;;;;;;;24.48;9.93;;;11.20;96.50;;;;;;5115602;28;20081;-73
2022/12/23 07:19:05;;;;;;;25.10;8.70;;;11.20;96.60;;;;;;5132980;28;20031;-73
2022/12/23 07:21:31;;;;;;;25.00;9.00;;;11.20;96.60;;;;;;5133836;28;20032;-73
2022/12/23 07:23:56;;;;;;;24.83;8.02;;;11.20;96.60;;;;;;5115788;28;20104;-73
2022/12/23 07:26:22;;;;;;;23.08;8.90;;;11.10;96.60;;;;;;5133793;28;20034;-73
2022/12/23 07:28:48;;;;;;;21.58;8.57;;;11.20;96.60;;;;;;5115671;28;20043;-73
2022/12/23 07:31:14;;;;;;;20.33;8.73;;;11.20;96.60;;;;;;5115748;28;20083;-73
2022/12/23 07:33:39;;;;;;;25.00;8.43;;;11.20;96.70;;;;;;5132776;28;20024;-73
2022/12/23 07:36:05;;;;;;;21.80;7.72;;;11.20;96.70;;;;;;5132678;28;20055;-73
2022/12/23 07:38:31;;;;;;;20.38;7.93;;;11.20;96.60;;;;;;5133706;28;20031;-73
2022/12/23 07:40:56;;;;;;;23.25;7.47;;;11.20;96.60;;;;;;5133786;28;20049;-73
2022/12/23 07:43:22;;;;;;;21.00;6.80;;;11.20;96.60;;;;;;5132792;28;20032;-73
2022/12/23 07:45:48;;;;;;;18.45;7.38;;;11.10;96.60;;;;;;5133764;28;20057;-73
2022/12/23 07:48:13;;;;;;;22.20;7.18;;;11.20;96.70;;;;;;5132769;28;20090;-73
2022/12/23 07:50:39;;;;;;;18.65;6.88;;;11.10;96.60;;;;;;5115569;28;20024;-73
2022/12/23 07:53:05;;;;;;;16.80;6.35;;;11.20;96.70;;;;;;5132489;28;20221;-73
2022/12/23 07:55:30;;;;;;;16.52;7.40;;;11.10;96.60;;;;;;5132671;28;20026;-73
2022/12/23 07:57:56;;;;;;;17.50;7.07;;;11.10;96.60;;;;;;5115529;28;20092;-73
2022/12/23 08:00:21;;;;;;;19.38;7.68;;;11.20;96.60;;;;;;5115425;28;20047;-73
2022/12/23 08:02:47;;;;;;;16.67;6.90;;;11.20;96.60;;;;;;5132659;28;20039;-73
2022/12/23 08:05:14;;;;;;;17.50;6.40;;;11.20;96.60;;;;;;5133436;28;20038;-73
2022/12/23 08:07:40;;;;;;;20.20;7.53;;;11.10;96.50;;;;;;5137173;28;20020;-73
2022/12/23 08:10:06;;;;;;;17.92;7.22;;;11.10;96.60;;;;;;5136137;28;20062;-74
2022/12/23 08:12:32;;;;;;;22.50;7.75;;;11.10;96.60;;;;;;5137109;28;20020;-73
2022/12/23 08:14:58;;;;;;;20.02;7.30;;;11.10;96.60;;;;;;5136942;28;20064;-73
2022/12/23 08:17:28;;;;;;;17.98;7.25;;;11.10;96.60;;;;;;5136159;28;20023;-73
2022/12/23 08:19:54;;;;;;;20.38;8.15;;;11.10;96.70;;;;;;5137018;28;20022;-73
2022/12/23 08:22:20;;;;;;;23.05;8.00;;;11.10;96.60;;;;;;5136927;28;20075;-73
2022/12/23 08:24:46;;;;;;;23.02;8.27;;;11.10;96.60;;;;;;5136880;28;20042;-73
2022/12/23 08:27:12;;;;;;;28.50;9.40;;;11.10;96.60;;;;;;5136828;28;20023;-73
2022/12/23 08:29:38;;;;;;;22.92;8.95;;;11.20;96.60;;;;;;5135884;28;20019;-73
2022/12/23 08:32:05;;;;;;;26.30;9.02;;;11.10;96.50;;;;;;5136700;28;20031;-73
2022/12/23 08:34:31;;;;;;;25.23;9.23;;;11.20;96.50;;;;;;5118689;28;20059;-73
2022/12/23 08:36:56;;;;;;;26.65;10.15;;;11.20;96.50;;;;;;5118607;28;20020;-74
2022/12/23 08:39:22;;;;;;;25.80;10.45;;;11.10;96.40;;;;;;5135722;28;20043;-73
2022/12/23 08:41:47;;;;;;;33.53;10.77;;;11.10;96.70;;;;;;5136592;28;20047;-73
2022/12/23 08:44:14;;;;;;;27.15;10.93;;;11.10;96.50;;;;;;5135587;28;20065;-73
2022/12/23 08:46:39;;;;;;;31.00;10.02;;;11.00;96.60;;;;;;5135452;28;20035;-73
2022/12/23 08:49:06;;;;;;;28.02;9.88;;;11.00;96.70;;;;;;5135489;28;20087;-73
2022/12/23 08:51:33;;;;;;;27.00;11.18;;;11.00;96.80;;;;;;5135398;28;20040;-73
2022/12/23 08:53:59;;;;;;;35.20;12.57;;;11.00;96.80;;;;;;5135374;28;20169;-73
2022/12/23 08:56:28;;;;;;;31.35;12.07;;;11.00;96.90;;;;;;5135272;28;20024;-73
2022/12/23 08:58:54;;;;;;;33.08;12.40;;;11.00;97.00;;;;;;5136239;28;20079;-73
2022/12/23 09:01:23;;;;;;;32.28;12.32;;;11.00;97.00;;;;;;5136236;28;20079;-73
2022/12/23 09:03:50;;;;;;;37.08;13.90;;;11.00;97.00;;;;;;5136164;28;20030;-73
2022/12/23 09:06:19;;;;;;;38.45;12.68;;;11.00;97.10;;;;;;5101329;28;20031;-73
2022/12/23 09:08:45;;;;;;;36.97;13.10;;;11.00;97.10;;;;;;5136012;28;20026;-73
2022/12/23 09:11:13;;;;;;;39.08;13.40;;;10.90;97.20;;;;;;5135024;28;20055;-74
2022/12/23 09:13:39;;;;;;;42.85;13.32;;;10.90;97.30;;;;;;5134990;28;20053;-73
2022/12/23 09:16:06;;;;;;;38.80;13.57;;;10.90;97.30;;;;;;5134789;27;20039;-73
2022/12/23 09:18:32;;;;;;;36.95;13.07;;;10.90;97.40;;;;;;5117935;28;20027;-73
2022/12/23 09:21:02;;;;;;;34.92;11.73;;;10.90;97.40;;;;;;5134865;28;20081;-73
2022/12/23 09:23:28;;;;;;;36.72;13.05;;;10.90;97.50;;;;;;5135832;28;20020;-73
2022/12/23 09:25:54;;;;;;;36.97;13.98;;;10.90;97.50;;;;;;5134765;28;20020;-73
2022/12/23 09:28:21;;;;;;;37.67;13.50;;;10.90;97.50;;;;;;5135651;28;20052;-73
2022/12/23 09:30:47;;;;;;;38.25;12.43;;;10.90;97.50;;;;;;5134572;28;20020;-73
2022/12/23 09:33:13;;;;;;;35.75;12.23;;;10.90;97.50;;;;;;5134688;28;20382;-73
2022/12/23 09:35:38;;;;;;;35.78;12.05;;;10.90;97.50;;;;;;5134496;28;20027;-73
2022/12/23 09:38:04;;;;;;;31.60;11.80;;;10.90;97.50;;;;;;5117529;28;20023;-74
2022/12/23 09:40:33;;;;;;;42.15;12.77;;;10.90;97.50;;;;;;5134520;28;20051;-73
2022/12/23 09:43:17;;;;;;;34.45;11.52;;;10.90;97.50;;;;;;5134412;28;20047;-73
2022/12/23 09:46:13;;;;;;;33.47;11.38;;;10.90;97.50;;;;;;5134601;28;20027;-73
2022/12/23 09:48:44;;;;;;;32.05;11.27;;;10.90;97.50;;;;;;5134329;28;20087;-73
2022/12/23 09:51:12;;;;;;;28.90;10.88;;;10.90;97.50;;;;;;5134208;28;20023;-74
2022/12/23 09:54:21;;;;;;;31.02;10.20;;;10.90;97.40;;;;;;5135132;28;20024;-73
2022/12/23 09:56:58;;;;;;;28.42;10.65;;;10.90;97.40;;;;;;5105593;28;20040;-73
2022/12/23 09:59:57;;;;;;;31.38;11.48;;;10.90;97.40;;;;;;5134197;28;20045;-73
2022/12/23 10:02:29;;;;;;;31.98;10.52;;;10.90;97.50;;;;;;5135010;28;20031;-73
2022/12/23 10:05:36;;;;;;;30.95;10.20;;;10.90;97.40;;;;;;5135067;28;20027;-73
2022/12/23 10:08:22;;;;;;;29.40;10.32;;;10.90;97.40;;;;;;5122849;28;20067;-73
2022/12/23 10:10:52;;;;;;;31.70;11.05;;;10.90;97.40;;;;;;5134023;28;20053;-73
2022/12/23 10:13:33;;;;;;;29.27;9.95;;;10.90;97.40;;;;;;5133811;28;20020;-73
2022/12/23 10:16:08;;;;;;;24.73;8.18;;;10.90;97.40;;;;;;5133668;28;20059;-73
2022/12/23 10:18:46;;;;;;;30.58;9.65;;;10.90;97.40;;;;;;5134767;27;20020;-74
2022/12/23 10:21:25;;;;;;;27.45;8.95;;;10.80;97.50;;;;;;5134670;28;20044;-73
2022/12/23 10:23:53;;;;;;;26.77;8.93;;;10.80;97.60;;;;;;5134655;28;20024;-73
2022/12/23 10:26:23;;;;;;;23.75;7.43;;;10.80;97.70;;;;;;5133502;28;20047;-73
2022/12/23 10:28:57;;;;;;;21.75;8.02;;;10.80;97.70;;;;;;5133063;28;20020;-73
2022/12/23 10:31:46;;;;;;;24.20;8.57;;;10.80;97.70;;;;;;5134613;28;20027;-74
2022/12/23 10:34:29;;;;;;;19.63;7.30;;;10.80;97.70;;;;;;5133484;28;20026;-73
2022/12/23 10:37:05;;;;;;;;;;;10.80;97.70;;;;;;5133812;28;20039;-73
2022/12/23 10:39:59;;;;;;;20.73;7.03;;;10.80;97.60;;;;;;5134379;28;20389;-73
2022/12/23 10:42:49;;;;;;;18.23;7.47;;;10.80;97.60;;;;;;5134481;28;20015;-73
2022/12/23 10:45:24;;;;;;;14.70;6.57;;;10.80;97.70;;;;;;5133393;28;20039;-73
2022/12/23 10:48:30;;;;;;;19.90;7.63;;;10.80;97.50;;;;;;5133141;28;20034;-73
2022/12/23 10:51:14;;;;;;;20.48;7.22;;;10.80;97.60;;;;;;5132398;28;20031;-73
2022/12/23 10:53:49;;;;;;;24.08;8.32;;;10.80;97.70;;;;;;5133154;28;20027;-73
2022/12/23 10:56:15;;;;;;;22.10;8.23;;;10.80;97.60;;;;;;5134156;28;20042;-73
2022/12/23 10:58:43;;;;;;;16.58;7.05;;;10.80;97.50;;;;;;5134035;28;20016;-73
2022/12/23 11:01:12;;;;;;;20.52;7.40;;;10.80;97.60;;;;;;5134056;28;20027;-73
2022/12/23 11:03:57;;;;;;;22.67;7.80;;;10.70;97.60;;;;;;5134000;28;20047;-73
2022/12/23 11:06:24;;;;;;;13.32;5.05;;;10.80;97.50;;;;;;5133006;28;20027;-73
2022/12/23 11:08:50;;;;;;;19.17;7.65;;;10.80;97.30;;;;;;5132970;28;20030;-74
2022/12/23 11:11:15;;;;;;;18.40;7.32;;;10.70;97.30;;;;;;5133001;28;20208;-73
2022/12/23 11:13:44;;;;;;;18.83;7.85;;;10.70;97.50;;;;;;5133879;28;20055;-73
2022/12/23 11:16:12;;;;;;;20.02;7.25;;;10.70;97.60;;;;;;5132671;28;20081;-74
2022/12/23 11:18:52;;;;;;;14.90;6.63;;;10.70;97.50;;;;;;5132823;28;20050;-74
2022/12/23 11:21:18;;;;;;;20.88;8.20;;;10.70;97.50;;;;;;5133913;28;20027;-73
2022/12/23 11:23:44;;;;;;;19.70;8.48;;;10.80;97.40;;;;;;5132932;28;20073;-73
2022/12/23 11:26:16;;;;;;;16.10;7.43;;;10.80;97.40;;;;;;5132878;28;20024;-73
2022/12/23 11:29:04;;;;;;;10.68;5.60;;;10.80;97.20;;;;;;5132899;28;20058;-73
2022/12/23 11:31:34;;;;;;;20.00;8.02;;;10.80;97.50;;;;;;5133729;28;20031;-73
2022/12/23 11:34:19;;;;;;;17.73;7.20;;;10.80;97.20;;;;;;5133799;28;20016;-73
2022/12/23 11:36:58;;;;;;;20.02;6.93;;;10.90;97.20;;;;;;5133768;28;20048;-73
2022/12/23 11:39:26;;;;;;;18.40;7.10;;;10.90;97.20;;;;;;5132764;28;20035;-73
2022/12/23 11:42:01;;;;;;;17.65;7.22;;;10.90;97.20;;;;;;5137441;28;20030;-73
2022/12/23 11:44:46;;;;;;;14.23;6.05;;;10.90;97.00;;;;;;5136707;28;20027;-73
2022/12/23 11:47:21;;;;;;;19.90;7.75;;;10.90;97.00;;;;;;5137802;28;20019;-73
2022/12/23 11:49:53;;;;;;;13.68;6.38;;;10.90;97.00;;;;;;5136631;28;20051;-74
2022/12/23 11:52:21;;;;;;;15.35;6.80;;;10.90;97.00;;;;;;5136615;28;20051;-73
2022/12/23 11:55:07;;;;;;;15.98;7.00;;;11.00;97.00;;;;;;5136549;28;20042;-73
2022/12/23 11:57:45;;;;;;;16.63;7.60;;;11.00;96.90;;;;;;5119651;28;20044;-73
2022/12/23 12:00:33;;;;;;;18.85;6.63;;;11.00;96.90;;;;;;5137363;28;20058;-73
2022/12/23 12:03:00;;;;;;;18.75;7.90;;;11.00;96.80;;;;;;5136373;28;20039;-73
2022/12/23 12:05:35;;;;;;;20.85;7.85;;;11.00;96.90;;;;;;5137325;28;20019;-74
2022/12/23 12:08:05;;;;;;;20.10;7.50;;;11.00;96.90;;;;;;5137264;28;20020;-74
2022/12/23 12:10:34;;;;;;;12.32;6.45;;;11.10;96.90;;;;;;5137266;28;20020;-73
2022/12/23 12:13:05;;;;;;;18.83;6.45;;;11.10;96.80;;;;;;5137216;27;20023;-73
2022/12/23 12:16:22;;;;;;;17.10;6.37;;;11.10;96.80;;;;;;5136995;28;20048;-73
2022/12/23 12:18:50;;;;;;;16.42;5.90;;;11.10;96.50;;;;;;5054611;28;20036;-73
2022/12/23 12:21:22;;;;;;;11.85;6.10;;;11.10;96.50;;;;;;5127372;28;20031;-73
2022/12/23 12:23:55;;;;;;;13.88;6.07;;;11.10;96.50;;;;;;5135957;28;20049;-73
2022/12/23 12:26:35;;;;;;;15.45;5.35;;;11.10;96.50;;;;;;5135925;28;20052;-74
2022/12/23 12:29:15;;;;;;;11.45;5.05;;;11.00;96.50;;;;;;5135979;28;20032;-73
2022/12/23 12:31:45;;;;;;;16.25;5.35;;;11.00;96.50;;;;;;5136818;28;20034;-73
2022/12/23 12:34:41;;;;;;;10.82;4.82;;;11.00;96.50;;;;;;5136888;28;20079;-73
2022/12/23 12:37:39;;;;;;;13.98;4.82;;;11.00;96.50;;;;;;5135795;28;20436;-73
2022/12/23 12:40:34;;;;;;;11.77;5.22;;;10.90;96.60;;;;;;5136686;28;20047;-73
2022/12/23 12:43:02;;;;;;;12.98;5.43;;;11.00;96.70;;;;;;5136732;27;20012;-73
2022/12/23 12:45:40;;;;;;;11.45;4.78;;;11.00;96.60;;;;;;5135545;28;20095;-74
2022/12/23 12:48:21;;;;;;;14.43;5.25;;;11.00;96.60;;;;;;5136539;28;20053;-73
2022/12/23 12:51:04;;;;;;;13.60;5.47;;;11.00;96.60;;;;;;5134904;28;20030;-73
2022/12/23 12:53:32;;;;;;;12.40;6.00;;;11.00;96.60;;;;;;5136436;28;20020;-73
2022/12/23 12:56:11;;;;;;;12.35;5.55;;;11.00;96.50;;;;;;5135465;28;20024;-73
2022/12/23 12:58:37;;;;;;;14.05;5.57;;;11.00;96.60;;;;;;5135302;28;20016;-73
2022/12/23 13:01:11;;;;;;;14.85;5.70;;;11.00;96.70;;;;;;5135484;28;20471;-73
2022/12/23 13:04:26;;;;;;;13.13;5.93;;;11.00;96.70;;;;;;5136229;28;20024;-73
2022/12/23 13:07:24;;;;;;;11.32;5.32;;;11.10;96.70;;;;;;5097690;28;20478;-74
2022/12/23 13:10:02;;;;;;;10.93;4.05;;;11.00;96.70;;;;;;5131843;28;20036;-73
2022/12/23 13:12:47;;;;;;;12.85;5.22;;;10.90;96.90;;;;;;5136112;28;20095;-73
2022/12/23 13:15:48;;;;;;;16.52;5.95;;;10.90;97.00;;;;;;5134719;28;20036;-73
2022/12/23 13:18:43;;;;;;;13.20;6.00;;;10.90;97.10;;;;;;5134951;28;20031;-73
2022/12/23 13:21:41;;;;;;;13.23;5.00;;;10.90;97.30;;;;;;5134973;28;20019;-73